M V Legend II — HP5804 — position and weather

sailwx.info

Track history (hours):
 
Tides and Currents Weather Stations Pressure Air Temp Water Temp Dewpoint Dewpoint Depression Visibility Wind Speed Wind Dir Waves Ship Positions

M V Legend II

Last reported at 2017-Oct-20 09:32 UTC. Time now 2017-Oct-22 12:12 UTC.
Position N 25°38' W 079°31'.

Length 49 m.

MMSI: 370375000.

Date/timePositionNaut miles runAvg speedWind from/ knotsBaromVisibWave heightAir tempDewpointWater temp
2017-Oct-20 09:32N 25°38' W 079°31'0 9.3
2017-Oct-20 09:30N 25°38' W 079°32'5 9.2
2017-Oct-20 09:01N 25°39' W 079°37'5 9.2
2017-Oct-20 08:31N 25°40' W 079°42'5 9.0
2017-Oct-20 08:00N 25°41' W 079°46'4 8.6
2017-Oct-20 07:31N 25°42' W 079°51'4 8.5
2017-Oct-20 07:00N 25°43' W 079°56'4 8.6
2017-Oct-20 06:30N 25°44' W 080°00'5 9.1
2017-Oct-20 06:00N 25°46' W 080°05'5 9.9
2017-Oct-20 05:30N 25°46' W 080°11'2 3.2
2017-Oct-20 05:00N 25°47' W 080°12'2 3.8
2017-Oct-20 04:30N 25°48' W 080°14'1 1.3
2017-Oct-20 04:00N 25°48' W 080°15'0 0.0
2017-Oct-20 03:30N 25°48' W 080°15'0 0.0
2017-Oct-20 03:00N 25°48' W 080°15'0 0.0
2017-Oct-20 02:30N 25°48' W 080°15'0 0.0
2017-Oct-20 02:00N 25°48' W 080°15'0 0.0
2017-Oct-20 01:30N 25°48' W 080°15'0 0.0
2017-Oct-20 01:00N 25°48' W 080°15'0 0.0
2017-Oct-20 00:30N 25°48' W 080°15'0 0.0
2017-Oct-20 00:00N 25°48' W 080°15'0 0.0
2017-Oct-19 23:30N 25°48' W 080°15'1 1.6
2017-Oct-19 23:01N 25°47' W 080°14'2 3.0
2017-Oct-19 22:30N 25°47' W 080°13'1 2.5
2017-Oct-19 22:00N 25°46' W 080°11'1 2.5
2017-Oct-19 21:30N 25°46' W 080°10'5 9.8
2017-Oct-19 21:00N 25°45' W 080°05'510.9
2017-Oct-19 20:30N 25°44' W 079°59'611.0
2017-Oct-19 20:00N 25°41' W 079°53'611.2
2017-Oct-19 19:30N 25°39' W 079°48'611.3
2017-Oct-19 19:00N 25°36' W 079°42'611.2
2017-Oct-19 18:30N 25°34' W 079°37'0 0.0
2017-Oct-19 07:56N 25°34' W 079°36'4 9.1
2017-Oct-19 07:30N 25°36' W 079°40'4 8.9
2017-Oct-19 07:00N 25°37' W 079°45'4 8.6
2017-Oct-19 06:30N 25°39' W 079°49'4 8.6
2017-Oct-19 06:00N 25°41' W 079°53'4 8.6
2017-Oct-19 05:30N 25°43' W 079°58'4 8.5
2017-Oct-19 05:00N 25°45' W 080°02'5 9.5
2017-Oct-19 04:30N 25°46' W 080°07'4 7.3
2017-Oct-19 04:00N 25°46' W 080°11'2 3.4
2017-Oct-19 03:30N 25°47' W 080°13'2 3.5
2017-Oct-19 03:00N 25°48' W 080°15'0 0.6
2017-Oct-19 02:30N 25°48' W 080°15'0 0.0
2017-Oct-19 02:00N 25°48' W 080°15'0 0.0
2017-Oct-19 01:30N 25°48' W 080°15'0 0.0
2017-Oct-19 01:00N 25°48' W 080°15'0 0.0
2017-Oct-19 00:30N 25°48' W 080°15'0 0.0
2017-Oct-19 00:00N 25°48' W 080°15'0 0.0
2017-Oct-18 23:30N 25°48' W 080°15'0 0.0
2017-Oct-18 23:00N 25°48' W 080°15'0 0.0
2017-Oct-18 22:30N 25°48' W 080°15'0 0.0
2017-Oct-18 22:00N 25°48' W 080°15'0 0.0
2017-Oct-18 21:30N 25°48' W 080°15'0 0.0
2017-Oct-18 21:00N 25°48' W 080°15'0 0.0
2017-Oct-18 20:30N 25°48' W 080°15'0 0.0
2017-Oct-18 20:00N 25°48' W 080°15'0 0.0
2017-Oct-18 19:30N 25°48' W 080°15'0 0.0
2017-Oct-18 19:00N 25°48' W 080°15'0 0.0
2017-Oct-18 18:30N 25°48' W 080°15'0 0.0
2017-Oct-18 18:00N 25°48' W 080°15'0 0.0
2017-Oct-18 17:30N 25°48' W 080°15'0 0.0
2017-Oct-18 17:00N 25°48' W 080°15'0 0.0
2017-Oct-18 16:30N 25°48' W 080°15'0 0.0
2017-Oct-18 16:00N 25°48' W 080°15'0 0.0
2017-Oct-18 15:30N 25°48' W 080°15'0 0.0
2017-Oct-18 15:00N 25°48' W 080°15'0 0.0
2017-Oct-18 14:00N 25°48' W 080°15'0 0.0
2017-Oct-18 13:30N 25°48' W 080°15'0 0.0
2017-Oct-18 13:00N 25°48' W 080°15'0 0.0
2017-Oct-18 12:30N 25°48' W 080°15'1 1.5
2017-Oct-18 12:00N 25°47' W 080°14'1 2.8
2017-Oct-18 11:30N 25°47' W 080°13'1 2.5
2017-Oct-18 11:00N 25°46' W 080°12'1 2.0
2017-Oct-18 10:30N 25°46' W 080°11'4 7.1
2017-Oct-18 10:00N 25°45' W 080°07'5 9.9
2017-Oct-18 09:30N 25°47' W 080°02'5 9.4
2017-Oct-18 09:00N 25°47' W 079°56'5 9.2
2017-Oct-18 08:30N 25°48' W 079°51'5 9.1
2017-Oct-18 08:00N 25°48' W 079°46'5 9.3
2017-Oct-18 07:30N 25°49' W 079°41'5 9.6
2017-Oct-18 07:00N 25°49' W 079°36'5 9.9
2017-Oct-18 06:30N 25°50' W 079°30'  
2017-Oct-14 08:11N 25°38' W 079°33'2 8.6
2017-Oct-14 07:59N 25°38' W 079°35'4 8.6
2017-Oct-14 07:30N 25°39' W 079°39'4 8.1
2017-Oct-14 07:00N 25°41' W 079°43'4 8.5
2017-Oct-14 06:30N 25°42' W 079°48'4 8.6
2017-Oct-14 06:00N 25°43' W 079°53'4 8.6
2017-Oct-14 05:30N 25°44' W 079°57'4 8.8
2017-Oct-14 05:01N 25°46' W 080°02'5 9.2
2017-Oct-14 04:30N 25°46' W 080°07'4 7.8
2017-Oct-14 04:00N 25°46' W 080°11'1 3.0
2017-Oct-14 03:31N 25°47' W 080°13'2 3.4
2017-Oct-14 03:00N 25°48' W 080°14'1 1.2
2017-Oct-14 02:30N 25°48' W 080°15'0 0.0
2017-Oct-14 02:00N 25°48' W 080°15'0 0.0
2017-Oct-14 01:30N 25°48' W 080°15'0 0.0
2017-Oct-14 01:00N 25°48' W 080°15'0 0.0
2017-Oct-14 00:30N 25°48' W 080°15'0 0.0
2017-Oct-14 00:01N 25°48' W 080°15'0 0.0
2017-Oct-13 23:30N 25°48' W 080°15'0 0.0
2017-Oct-13 23:00N 25°48' W 080°15'0 0.0
2017-Oct-13 22:30N 25°48' W 080°15'0 0.0
2017-Oct-13 22:00N 25°48' W 080°15'0 0.0
2017-Oct-13 21:30N 25°48' W 080°15'0 0.0
2017-Oct-13 21:00N 25°48' W 080°15'0 0.0
2017-Oct-13 20:30N 25°48' W 080°15'0 0.0
2017-Oct-13 20:00N 25°48' W 080°15'0 0.0
2017-Oct-13 19:30N 25°48' W 080°15'0 0.0
2017-Oct-13 19:00N 25°48' W 080°15'0 0.0
2017-Oct-13 18:30N 25°48' W 080°15'0 0.0
2017-Oct-13 18:00N 25°48' W 080°15'0 0.0
2017-Oct-13 17:30N 25°48' W 080°15'0 0.0
2017-Oct-13 17:00N 25°48' W 080°15'0 0.0
2017-Oct-13 16:30N 25°48' W 080°15'0 0.0
2017-Oct-13 16:00N 25°48' W 080°15'0 0.0
2017-Oct-13 15:30N 25°48' W 080°15'0 0.0
2017-Oct-13 15:00N 25°48' W 080°15'0 0.0
2017-Oct-13 14:30N 25°48' W 080°15'0 0.0
2017-Oct-13 14:00N 25°48' W 080°15'0 0.0
2017-Oct-13 13:30N 25°48' W 080°15'0 0.0
2017-Oct-13 13:00N 25°48' W 080°15'0 0.0
2017-Oct-13 12:30N 25°48' W 080°15'0 0.0
2017-Oct-13 12:00N 25°48' W 080°15'0 0.0
2017-Oct-13 11:30N 25°48' W 080°15'0 0.0
2017-Oct-13 11:00N 25°48' W 080°15'0 0.0
2017-Oct-13 10:30N 25°48' W 080°15'0 0.0
2017-Oct-13 10:00N 25°48' W 080°15'0 0.0
2017-Oct-13 09:30N 25°48' W 080°15'0 0.0
2017-Oct-13 09:00N 25°48' W 080°15'0 0.0
2017-Oct-13 08:30N 25°48' W 080°15'0 0.0
2017-Oct-13 08:00N 25°48' W 080°15'0 0.0
2017-Oct-13 07:30N 25°48' W 080°15'0 0.0
2017-Oct-13 07:00N 25°48' W 080°15'0 0.0
2017-Oct-13 06:30N 25°48' W 080°15'0 0.0
2017-Oct-13 06:00N 25°48' W 080°15'0 0.0
2017-Oct-13 05:30N 25°48' W 080°15'0 0.0
2017-Oct-13 05:00N 25°48' W 080°15'0 0.0
2017-Oct-13 04:30N 25°48' W 080°15'0 0.0
2017-Oct-13 04:00N 25°48' W 080°15'0 0.0
2017-Oct-13 03:30N 25°48' W 080°15'0 0.0
2017-Oct-13 03:00N 25°48' W 080°15'0 0.0
2017-Oct-13 02:30N 25°48' W 080°15'0 0.0
2017-Oct-13 02:00N 25°48' W 080°15'0 0.0
2017-Oct-13 01:30N 25°48' W 080°15'0 0.0
2017-Oct-13 01:00N 25°48' W 080°15'0 0.9
2017-Oct-13 00:31N 25°48' W 080°14'2 3.2
2017-Oct-13 00:00N 25°47' W 080°13'1 2.8
2017-Oct-12 23:31N 25°46' W 080°12'2 4.7
2017-Oct-12 23:00N 25°46' W 080°09'510.0
2017-Oct-12 22:31N 25°46' W 080°03'611.0
2017-Oct-12 22:00N 25°43' W 079°58'510.8
2017-Oct-12 21:30N 25°41' W 079°52'510.7
2017-Oct-12 21:00N 25°39' W 079°47'510.9
2017-Oct-12 20:30N 25°36' W 079°42'510.8
2017-Oct-12 20:00N 25°34' W 079°36'2 0.1
2017-Oct-12 07:43N 25°32' W 079°36'2 9.2
2017-Oct-12 07:30N 25°33' W 079°38'4 8.8
2017-Oct-12 07:00N 25°35' W 079°42'4 8.6
2017-Oct-12 06:30N 25°36' W 079°47'4 8.6
2017-Oct-12 06:00N 25°38' W 079°51'3 5.9
2017-Oct-12 05:30N 25°40' W 079°54'4 7.4
2017-Oct-12 05:01N 25°42' W 079°57'4 8.2
2017-Oct-12 04:30N 25°44' W 080°01'4 9.0
2017-Oct-12 04:00N 25°46' W 080°05'4 8.1
2017-Oct-12 03:30N 25°46' W 080°10'2 3.6
2017-Oct-12 03:01N 25°46' W 080°12'2 3.2
2017-Oct-12 02:30N 25°47' W 080°13'1 2.9
2017-Oct-12 02:00N 25°48' W 080°15'0 0.1
2017-Oct-12 01:30N 25°48' W 080°15'0 0.0
2017-Oct-12 01:00N 25°48' W 080°15'0 0.0
2017-Oct-12 00:30N 25°48' W 080°15'0 0.0
2017-Oct-12 00:00N 25°48' W 080°15'0 0.0
2017-Oct-11 23:30N 25°48' W 080°15'0 0.0
2017-Oct-11 23:00N 25°48' W 080°15'0 0.0
2017-Oct-11 22:30N 25°48' W 080°15'0 0.0
2017-Oct-11 22:00N 25°48' W 080°15'0 0.0
2017-Oct-11 21:30N 25°48' W 080°15'0 0.0
2017-Oct-11 21:00N 25°48' W 080°15'0 0.0
2017-Oct-11 20:30N 25°48' W 080°15'0 0.0
2017-Oct-11 20:00N 25°48' W 080°15'0 0.0
2017-Oct-11 19:30N 25°48' W 080°15'0 0.0
2017-Oct-11 19:00N 25°48' W 080°15'0 0.0
2017-Oct-11 18:30N 25°48' W 080°15'0 0.0
2017-Oct-11 18:00N 25°48' W 080°15'0 0.0
2017-Oct-11 17:30N 25°48' W 080°15'1 2.0
2017-Oct-11 17:00N 25°47' W 080°14'  
Track history (hours):
 
Tides and Currents Weather Stations Pressure Air Temp Water Temp Dewpoint Dewpoint Depression Visibility Wind Speed Wind Dir Waves Ship Positions

M V Legend II

Last reported at 2017-Oct-20 09:32 UTC. Time now 2017-Oct-22 12:12 UTC.
Position N 25°38' W 079°31'.

Length 49 m.

MMSI: 370375000.

Date/timePositionNaut miles runAvg speedWind from/ knotsBaromVisibWave heightAir tempDewpointWater temp
2017-Oct-20 09:32N 25°38' W 079°31'0 9.3
2017-Oct-20 09:30N 25°38' W 079°32'5 9.2
2017-Oct-20 09:01N 25°39' W 079°37'5 9.2
2017-Oct-20 08:31N 25°40' W 079°42'5 9.0
2017-Oct-20 08:00N 25°41' W 079°46'4 8.6
2017-Oct-20 07:31N 25°42' W 079°51'4 8.5
2017-Oct-20 07:00N 25°43' W 079°56'4 8.6
2017-Oct-20 06:30N 25°44' W 080°00'5 9.1
2017-Oct-20 06:00N 25°46' W 080°05'5 9.9
2017-Oct-20 05:30N 25°46' W 080°11'2 3.2
2017-Oct-20 05:00N 25°47' W 080°12'2 3.8
2017-Oct-20 04:30N 25°48' W 080°14'1 1.3
2017-Oct-20 04:00N 25°48' W 080°15'0 0.0
2017-Oct-20 03:30N 25°48' W 080°15'0 0.0
2017-Oct-20 03:00N 25°48' W 080°15'0 0.0
2017-Oct-20 02:30N 25°48' W 080°15'0 0.0
2017-Oct-20 02:00N 25°48' W 080°15'0 0.0
2017-Oct-20 01:30N 25°48' W 080°15'0 0.0
2017-Oct-20 01:00N 25°48' W 080°15'0 0.0
2017-Oct-20 00:30N 25°48' W 080°15'0 0.0
2017-Oct-20 00:00N 25°48' W 080°15'0 0.0
2017-Oct-19 23:30N 25°48' W 080°15'1 1.6
2017-Oct-19 23:01N 25°47' W 080°14'2 3.0
2017-Oct-19 22:30N 25°47' W 080°13'1 2.5
2017-Oct-19 22:00N 25°46' W 080°11'1 2.5
2017-Oct-19 21:30N 25°46' W 080°10'5 9.8
2017-Oct-19 21:00N 25°45' W 080°05'510.9
2017-Oct-19 20:30N 25°44' W 079°59'611.0
2017-Oct-19 20:00N 25°41' W 079°53'611.2
2017-Oct-19 19:30N 25°39' W 079°48'611.3
2017-Oct-19 19:00N 25°36' W 079°42'611.2
2017-Oct-19 18:30N 25°34' W 079°37'0 0.0
2017-Oct-19 07:56N 25°34' W 079°36'4 9.1
2017-Oct-19 07:30N 25°36' W 079°40'4 8.9
2017-Oct-19 07:00N 25°37' W 079°45'4 8.6
2017-Oct-19 06:30N 25°39' W 079°49'4 8.6
2017-Oct-19 06:00N 25°41' W 079°53'4 8.6
2017-Oct-19 05:30N 25°43' W 079°58'4 8.5
2017-Oct-19 05:00N 25°45' W 080°02'5 9.5
2017-Oct-19 04:30N 25°46' W 080°07'4 7.3
2017-Oct-19 04:00N 25°46' W 080°11'2 3.4
2017-Oct-19 03:30N 25°47' W 080°13'2 3.5
2017-Oct-19 03:00N 25°48' W 080°15'0 0.6
2017-Oct-19 02:30N 25°48' W 080°15'0 0.0
2017-Oct-19 02:00N 25°48' W 080°15'0 0.0
2017-Oct-19 01:30N 25°48' W 080°15'0 0.0
2017-Oct-19 01:00N 25°48' W 080°15'0 0.0
2017-Oct-19 00:30N 25°48' W 080°15'0 0.0
2017-Oct-19 00:00N 25°48' W 080°15'0 0.0
2017-Oct-18 23:30N 25°48' W 080°15'0 0.0
2017-Oct-18 23:00N 25°48' W 080°15'0 0.0
2017-Oct-18 22:30N 25°48' W 080°15'0 0.0
2017-Oct-18 22:00N 25°48' W 080°15'0 0.0
2017-Oct-18 21:30N 25°48' W 080°15'0 0.0
2017-Oct-18 21:00N 25°48' W 080°15'0 0.0
2017-Oct-18 20:30N 25°48' W 080°15'0 0.0
2017-Oct-18 20:00N 25°48' W 080°15'0 0.0
2017-Oct-18 19:30N 25°48' W 080°15'0 0.0
2017-Oct-18 19:00N 25°48' W 080°15'0 0.0
2017-Oct-18 18:30N 25°48' W 080°15'0 0.0
2017-Oct-18 18:00N 25°48' W 080°15'0 0.0
2017-Oct-18 17:30N 25°48' W 080°15'0 0.0
2017-Oct-18 17:00N 25°48' W 080°15'0 0.0
2017-Oct-18 16:30N 25°48' W 080°15'0 0.0
2017-Oct-18 16:00N 25°48' W 080°15'0 0.0
2017-Oct-18 15:30N 25°48' W 080°15'0 0.0
2017-Oct-18 15:00N 25°48' W 080°15'0 0.0
2017-Oct-18 14:00N 25°48' W 080°15'0 0.0
2017-Oct-18 13:30N 25°48' W 080°15'0 0.0
2017-Oct-18 13:00N 25°48' W 080°15'0 0.0
2017-Oct-18 12:30N 25°48' W 080°15'1 1.5
2017-Oct-18 12:00N 25°47' W 080°14'1 2.8
2017-Oct-18 11:30N 25°47' W 080°13'1 2.5
2017-Oct-18 11:00N 25°46' W 080°12'1 2.0
2017-Oct-18 10:30N 25°46' W 080°11'4 7.1
2017-Oct-18 10:00N 25°45' W 080°07'5 9.9
2017-Oct-18 09:30N 25°47' W 080°02'5 9.4
2017-Oct-18 09:00N 25°47' W 079°56'5 9.2
2017-Oct-18 08:30N 25°48' W 079°51'5 9.1
2017-Oct-18 08:00N 25°48' W 079°46'5 9.3
2017-Oct-18 07:30N 25°49' W 079°41'5 9.6
2017-Oct-18 07:00N 25°49' W 079°36'5 9.9
2017-Oct-18 06:30N 25°50' W 079°30'  
2017-Oct-14 08:11N 25°38' W 079°33'2 8.6
2017-Oct-14 07:59N 25°38' W 079°35'4 8.6
2017-Oct-14 07:30N 25°39' W 079°39'4 8.1
2017-Oct-14 07:00N 25°41' W 079°43'4 8.5
2017-Oct-14 06:30N 25°42' W 079°48'4 8.6
2017-Oct-14 06:00N 25°43' W 079°53'4 8.6
2017-Oct-14 05:30N 25°44' W 079°57'4 8.8
2017-Oct-14 05:01N 25°46' W 080°02'5 9.2
2017-Oct-14 04:30N 25°46' W 080°07'4 7.8
2017-Oct-14 04:00N 25°46' W 080°11'1 3.0
2017-Oct-14 03:31N 25°47' W 080°13'2 3.4
2017-Oct-14 03:00N 25°48' W 080°14'1 1.2
2017-Oct-14 02:30N 25°48' W 080°15'0 0.0
2017-Oct-14 02:00N 25°48' W 080°15'0 0.0
2017-Oct-14 01:30N 25°48' W 080°15'0 0.0
2017-Oct-14 01:00N 25°48' W 080°15'0 0.0
2017-Oct-14 00:30N 25°48' W 080°15'0 0.0
2017-Oct-14 00:01N 25°48' W 080°15'0 0.0
2017-Oct-13 23:30N 25°48' W 080°15'0 0.0
2017-Oct-13 23:00N 25°48' W 080°15'0 0.0
2017-Oct-13 22:30N 25°48' W 080°15'0 0.0
2017-Oct-13 22:00N 25°48' W 080°15'0 0.0
2017-Oct-13 21:30N 25°48' W 080°15'0 0.0
2017-Oct-13 21:00N 25°48' W 080°15'0 0.0
2017-Oct-13 20:30N 25°48' W 080°15'0 0.0
2017-Oct-13 20:00N 25°48' W 080°15'0 0.0
2017-Oct-13 19:30N 25°48' W 080°15'0 0.0
2017-Oct-13 19:00N 25°48' W 080°15'0 0.0
2017-Oct-13 18:30N 25°48' W 080°15'0 0.0
2017-Oct-13 18:00N 25°48' W 080°15'0 0.0
2017-Oct-13 17:30N 25°48' W 080°15'0 0.0
2017-Oct-13 17:00N 25°48' W 080°15'0 0.0
2017-Oct-13 16:30N 25°48' W 080°15'0 0.0
2017-Oct-13 16:00N 25°48' W 080°15'0 0.0
2017-Oct-13 15:30N 25°48' W 080°15'0 0.0
2017-Oct-13 15:00N 25°48' W 080°15'0 0.0
2017-Oct-13 14:30N 25°48' W 080°15'0 0.0
2017-Oct-13 14:00N 25°48' W 080°15'0 0.0
2017-Oct-13 13:30N 25°48' W 080°15'0 0.0
2017-Oct-13 13:00N 25°48' W 080°15'0 0.0
2017-Oct-13 12:30N 25°48' W 080°15'0 0.0
2017-Oct-13 12:00N 25°48' W 080°15'0 0.0
2017-Oct-13 11:30N 25°48' W 080°15'0 0.0
2017-Oct-13 11:00N 25°48' W 080°15'0 0.0
2017-Oct-13 10:30N 25°48' W 080°15'0 0.0
2017-Oct-13 10:00N 25°48' W 080°15'0 0.0
2017-Oct-13 09:30N 25°48' W 080°15'0 0.0
2017-Oct-13 09:00N 25°48' W 080°15'0 0.0
2017-Oct-13 08:30N 25°48' W 080°15'0 0.0
2017-Oct-13 08:00N 25°48' W 080°15'0 0.0
2017-Oct-13 07:30N 25°48' W 080°15'0 0.0
2017-Oct-13 07:00N 25°48' W 080°15'0 0.0
2017-Oct-13 06:30N 25°48' W 080°15'0 0.0
2017-Oct-13 06:00N 25°48' W 080°15'0 0.0
2017-Oct-13 05:30N 25°48' W 080°15'0 0.0
2017-Oct-13 05:00N 25°48' W 080°15'0 0.0
2017-Oct-13 04:30N 25°48' W 080°15'0 0.0
2017-Oct-13 04:00N 25°48' W 080°15'0 0.0
2017-Oct-13 03:30N 25°48' W 080°15'0 0.0
2017-Oct-13 03:00N 25°48' W 080°15'0 0.0
2017-Oct-13 02:30N 25°48' W 080°15'0 0.0
2017-Oct-13 02:00N 25°48' W 080°15'0 0.0
2017-Oct-13 01:30N 25°48' W 080°15'0 0.0
2017-Oct-13 01:00N 25°48' W 080°15'0 0.9
2017-Oct-13 00:31N 25°48' W 080°14'2 3.2
2017-Oct-13 00:00N 25°47' W 080°13'1 2.8
2017-Oct-12 23:31N 25°46' W 080°12'2 4.7
2017-Oct-12 23:00N 25°46' W 080°09'510.0
2017-Oct-12 22:31N 25°46' W 080°03'611.0
2017-Oct-12 22:00N 25°43' W 079°58'510.8
2017-Oct-12 21:30N 25°41' W 079°52'510.7
2017-Oct-12 21:00N 25°39' W 079°47'510.9
2017-Oct-12 20:30N 25°36' W 079°42'510.8
2017-Oct-12 20:00N 25°34' W 079°36'2 0.1
2017-Oct-12 07:43N 25°32' W 079°36'2 9.2
2017-Oct-12 07:30N 25°33' W 079°38'4 8.8
2017-Oct-12 07:00N 25°35' W 079°42'4 8.6
2017-Oct-12 06:30N 25°36' W 079°47'4 8.6
2017-Oct-12 06:00N 25°38' W 079°51'3 5.9
2017-Oct-12 05:30N 25°40' W 079°54'4 7.4
2017-Oct-12 05:01N 25°42' W 079°57'4 8.2
2017-Oct-12 04:30N 25°44' W 080°01'4 9.0
2017-Oct-12 04:00N 25°46' W 080°05'4 8.1
2017-Oct-12 03:30N 25°46' W 080°10'2 3.6
2017-Oct-12 03:01N 25°46' W 080°12'2 3.2
2017-Oct-12 02:30N 25°47' W 080°13'1 2.9
2017-Oct-12 02:00N 25°48' W 080°15'0 0.1
2017-Oct-12 01:30N 25°48' W 080°15'0 0.0
2017-Oct-12 01:00N 25°48' W 080°15'0 0.0
2017-Oct-12 00:30N 25°48' W 080°15'0 0.0
2017-Oct-12 00:00N 25°48' W 080°15'0 0.0
2017-Oct-11 23:30N 25°48' W 080°15'0 0.0
2017-Oct-11 23:00N 25°48' W 080°15'0 0.0
2017-Oct-11 22:30N 25°48' W 080°15'0 0.0
2017-Oct-11 22:00N 25°48' W 080°15'0 0.0
2017-Oct-11 21:30N 25°48' W 080°15'0 0.0
2017-Oct-11 21:00N 25°48' W 080°15'0 0.0
2017-Oct-11 20:30N 25°48' W 080°15'0 0.0
2017-Oct-11 20:00N 25°48' W 080°15'0 0.0
2017-Oct-11 19:30N 25°48' W 080°15'0 0.0
2017-Oct-11 19:00N 25°48' W 080°15'0 0.0
2017-Oct-11 18:30N 25°48' W 080°15'0 0.0
2017-Oct-11 18:00N 25°48' W 080°15'0 0.0
2017-Oct-11 17:30N 25°48' W 080°15'1 2.0
2017-Oct-11 17:00N 25°47' W 080°14'  

Dump ship's entire track history